Monroe, OR (97456)

4:08 AM PST on December 11, 2016 (GMT -0800)
Monroe | | Change Station

Elev 410 ft 44.32 °N, 123.31 °W | Updated 7 minutes ago

Rain
Rain
41.2 °F
Feels Like 41 °F
N
0.0
Wind Variable Wind from SW
Gusts 3.0 mph

Today
High -- | Low -- °F
--% Chance of Precip.
Yesterday
High -- | Low -- °F
Precip. -- in
Pressure 30.10 in
Visibility 10.0 miles
Clouds Few 1800 ft
Scattered Clouds 2400 ft
Overcast 3500 ft
Windchill 41 °F
Dew Point 41 °F
Humidity 98%
Rainfall 0.15 in
Snow Depth Not available.
7:39 AM 4:34 PM
Waxing Gibbous, 91% visible
METAR KEUG 111154Z AUTO 17009KT 10SM -RA FEW018 SCT024 OVC035 06/04 A3009 RMK AO2 CIG 022 RNW 34 SLP192 P0006 60013 70038 T00610044 10061 20050 53001
Pressure 30.10 in
Visibility 10.0 miles
Clouds Few 1800 ft
Scattered Clouds 2400 ft
Overcast 3500 ft
Windchill 41 °F
Dew Point 41 °F
Humidity 98%
Rainfall 0.15 in
Snow Depth Not available.
7:39 AM 4:34 PM
Waxing Gibbous, 91% visible
METAR KEUG 111154Z AUTO 17009KT 10SM -RA FEW018 SCT024 OVC035 06/04 A3009 RMK AO2 CIG 022 RNW 34 SLP192 P0006 60013 70038 T00610044 10061 20050 53001

10-Day Weather Forecast

Almanac

Astronomy

Dec. 11, 2016 Rise Set
Actual Time
Civil Twilight
Nautical Twilight
Astronomical Twilight
Moon
Length of Visible Light
Length of Day
Tomorrow will be .
, % of the Moon is Illuminated

Today's Extremes

State Highs State Lows

Community

WunderPhotos

Upload Photos

1,956,710 photos uploaded!

WunderBlog® & News

Nearby

Air Quality

  Air Quality AQ Index Pollutant
Not available.

Snow Depth

Station Depth Elevation

Earthquake Activity

City Distance Mag. Time & Date
Minimum magnitude displayed is 2.5.

Coastal Water Temperatures

Place Temperature

Stations

Nearby Weather Stations

Station Location Temp. Windchill Dew Point Humidity Wind Precip. Elev Updated Type
                   

Watches & Warnings

There are currently no watches in effect.